createdAt,value
2022-09-05T00:02:48.931Z,0.15
2022-09-05T00:05:33.834Z,0.10
2022-09-05T00:08:17.732Z,0.10
2022-09-05T00:11:40.030Z,0.25
2022-09-05T00:14:07.506Z,0.10
2022-09-05T00:16:40.013Z,0.10
2022-09-05T00:24:23.276Z,0.40
2022-09-05T00:24:30.904Z,0.30
2022-09-05T00:25:46.570Z,0.10
2022-09-05T00:28:31.446Z,0.20
2022-09-05T00:31:50.874Z,0.10
2022-09-05T00:34:22.005Z,0.43
2022-09-05T00:36:54.876Z,0.63
2022-09-05T00:39:37.955Z,0.65
2022-09-05T00:42:15.543Z,0.30
2022-09-05T00:44:54.094Z,0.10
2022-09-05T00:47:30.945Z,0.17
2022-09-05T00:50:03.900Z,0.20
2022-09-05T00:53:06.324Z,0.50
2022-09-05T00:55:46.714Z,0.43
2022-09-05T00:59:04.287Z,0.40
2022-09-05T01:01:39.067Z,0.13
2022-09-05T01:04:42.791Z,0.40
2022-09-05T01:07:29.776Z,0.20
2022-09-05T01:10:04.502Z,0.30
2022-09-05T01:13:06.326Z,0.10
2022-09-05T01:16:05.500Z,0.10
2022-09-05T01:18:41.389Z,0.10
2022-09-05T01:21:19.874Z,0.22
2022-09-05T01:23:50.565Z,0.10
2022-09-05T01:26:23.619Z,0.20
2022-09-05T01:29:18.364Z,0.35
2022-09-05T01:32:20.665Z,0.32
2022-09-05T01:34:58.349Z,0.10
2022-09-05T01:37:44.840Z,0.50
2022-09-05T01:40:28.725Z,0.40
2022-09-05T01:42:55.804Z,0.30
2022-09-05T01:45:45.540Z,0.10
2022-09-05T01:48:33.889Z,0.10
2022-09-05T01:51:29.463Z,0.20
2022-09-05T01:54:23.959Z,0.30
2022-09-05T01:56:54.153Z,0.10
2022-09-05T01:59:45.910Z,0.10
2022-09-05T02:02:42.010Z,0.20
2022-09-05T02:05:51.052Z,0.25
2022-09-05T02:08:51.710Z,0.13
2022-09-05T02:14:27.046Z,0.10
2022-09-05T02:17:47.993Z,0.32
2022-09-05T02:20:28.664Z,0.17
2022-09-05T02:23:40.468Z,0.20
2022-09-05T02:26:03.456Z,0.20
2022-09-05T02:28:40.877Z,0.20
2022-09-05T02:31:25.174Z,0.10
2022-09-05T02:34:01.954Z,0.35
2022-09-05T02:36:45.662Z,0.20
2022-09-05T02:45:04.138Z,0.25
2022-09-05T02:45:20.772Z,0.13
2022-09-05T02:45:39.468Z,0.10
2022-09-05T02:48:33.353Z,0.35
2022-09-05T02:57:27.700Z,0.10
2022-09-05T02:57:39.467Z,0.50
2022-09-05T02:57:47.163Z,0.20
2022-09-05T03:00:11.356Z,0.30
2022-09-05T03:02:58.465Z,0.13
2022-09-05T03:05:31.539Z,0.10
2022-09-05T03:08:16.078Z,0.43
2022-09-05T03:10:53.961Z,0.10
2022-09-05T03:13:54.358Z,0.45
2022-09-05T03:16:58.897Z,0.20
2022-09-05T03:19:46.481Z,0.22
2022-09-05T03:22:16.504Z,0.20
2022-09-05T03:25:01.402Z,0.43
2022-09-05T03:28:05.149Z,0.22
2022-09-05T03:30:43.742Z,0.20
2022-09-05T03:33:22.910Z,0.20
2022-09-05T03:35:58.813Z,0.30
2022-09-05T03:39:16.506Z,0.30
2022-09-05T03:41:49.706Z,0.10
2022-09-05T03:44:37.642Z,0.20
2022-09-05T03:47:19.171Z,0.30
2022-09-05T03:53:18.015Z,0.15
2022-09-05T03:57:26.494Z,0.60
2022-09-05T03:59:10.654Z,0.10
2022-09-05T04:04:37.913Z,0.20
2022-09-05T04:08:15.463Z,0.40
2022-09-05T04:08:17.615Z,0.30
2022-09-05T04:10:33.276Z,0.40
2022-09-05T04:13:03.530Z,0.10
2022-09-05T04:15:45.649Z,0.10
2022-09-05T04:18:18.353Z,0.38
2022-09-05T04:21:18.774Z,0.10
2022-09-05T04:24:00.478Z,0.17
2022-09-05T04:26:49.114Z,0.20
2022-09-05T04:29:35.566Z,0.45
2022-09-05T04:32:18.833Z,0.80
2022-09-05T04:35:15.434Z,0.20
2022-09-05T04:37:59.463Z,0.65
2022-09-05T04:40:51.171Z,0.50
2022-09-05T04:43:31.440Z,0.45
2022-09-05T04:46:18.761Z,0.10
2022-09-05T04:49:02.382Z,0.20
2022-09-05T04:51:47.458Z,0.25
2022-09-05T04:54:42.182Z,0.63
2022-09-05T04:57:13.872Z,0.10
2022-09-05T05:03:26.142Z,0.10
2022-09-05T05:06:11.749Z,0.10
2022-09-05T05:06:17.108Z,0.40
2022-09-05T05:08:40.993Z,0.20
2022-09-05T05:16:17.284Z,0.25
2022-09-05T05:18:11.320Z,0.50
2022-09-05T05:18:13.274Z,0.10
2022-09-05T05:20:41.941Z,0.25
2022-09-05T05:23:07.812Z,0.50
2022-09-05T05:25:45.533Z,0.20
2022-09-05T05:28:25.088Z,0.10
2022-09-05T05:30:53.967Z,0.15
2022-09-05T05:33:33.830Z,0.28
2022-09-05T05:36:02.130Z,0.17
2022-09-05T05:38:39.368Z,0.10
2022-09-05T05:41:18.596Z,0.25
2022-09-05T05:43:46.749Z,0.30
2022-09-05T05:46:16.759Z,0.10
2022-09-05T05:48:51.789Z,0.20
2022-09-05T05:54:40.397Z,0.50
2022-09-05T05:57:19.003Z,0.13
2022-09-05T06:00:04.748Z,0.38
2022-09-05T06:03:26.457Z,0.30
2022-09-05T06:06:16.213Z,0.98
2022-09-05T06:12:40.136Z,0.77
2022-09-05T06:15:02.636Z,0.30
2022-09-05T06:15:34.233Z,0.28
2022-09-05T06:18:28.134Z,0.20
2022-09-05T06:22:09.227Z,0.43
2022-09-05T06:24:54.435Z,0.30
2022-09-05T06:28:01.627Z,0.40
2022-09-05T06:30:59.270Z,0.20
2022-09-05T06:34:06.910Z,0.30
2022-09-05T06:37:06.405Z,0.43
2022-09-05T06:39:43.781Z,0.10
2022-09-05T06:42:55.030Z,0.28
2022-09-05T06:45:40.288Z,0.30
2022-09-05T06:48:17.168Z,0.38
2022-09-05T06:51:14.658Z,0.55
2022-09-05T06:53:48.367Z,0.38
2022-09-05T06:56:25.471Z,0.30
2022-09-05T06:59:23.475Z,0.28
2022-09-05T07:02:01.646Z,0.35
2022-09-05T07:05:37.546Z,0.70
2022-09-05T07:08:13.619Z,0.40
2022-09-05T07:11:19.139Z,0.68
2022-09-05T07:13:56.780Z,0.57
2022-09-05T07:16:29.927Z,0.22
2022-09-05T07:19:15.865Z,0.20
2022-09-05T07:21:49.779Z,0.25
2022-09-05T07:24:28.165Z,0.50
2022-09-05T07:27:08.962Z,0.20
2022-09-05T07:30:00.716Z,0.57
2022-09-05T07:32:29.819Z,0.20
2022-09-05T07:34:57.651Z,0.40
2022-09-05T07:37:28.913Z,0.45
2022-09-05T07:40:04.060Z,0.57
2022-09-05T07:43:09.472Z,0.40
2022-09-05T07:45:55.387Z,0.40
2022-09-05T07:48:35.193Z,0.43
2022-09-05T07:53:43.605Z,0.55
2022-09-05T07:57:10.878Z,0.30
2022-09-05T07:59:53.265Z,0.47
2022-09-05T08:02:20.126Z,0.32
2022-09-05T08:04:46.963Z,0.30
2022-09-05T08:07:46.073Z,0.32
2022-09-05T08:10:10.253Z,0.60
2022-09-05T08:13:22.969Z,0.30
2022-09-05T08:16:09.960Z,0.20
2022-09-05T08:18:22.725Z,0.17
2022-09-05T08:20:58.871Z,0.20
2022-09-05T08:23:53.261Z,0.20
2022-09-05T08:26:48.658Z,0.47
2022-09-05T08:29:37.690Z,0.20
2022-09-05T08:32:35.874Z,0.43
2022-09-05T08:35:16.087Z,0.55
2022-09-05T08:37:44.396Z,0.17
2022-09-05T08:40:38.382Z,0.20
2022-09-05T08:46:36.633Z,0.50
2022-09-05T08:46:40.134Z,0.40
2022-09-05T08:49:46.336Z,0.40
2022-09-05T08:52:55.362Z,0.47
2022-09-05T08:55:46.964Z,0.30
2022-09-05T08:58:38.351Z,0.65
2022-09-05T09:01:08.016Z,0.15
2022-09-05T09:03:53.404Z,0.50
2022-09-05T09:06:38.914Z,0.30
2022-09-05T09:09:13.751Z,1.02
2022-09-05T09:12:04.110Z,0.65
2022-09-05T09:14:32.813Z,0.15
2022-09-05T09:17:35.138Z,0.50
2022-09-05T09:20:14.930Z,0.30
2022-09-05T09:23:32.172Z,0.73
2022-09-05T09:26:15.887Z,0.57
2022-09-05T09:29:02.469Z,0.90
2022-09-05T09:31:59.196Z,0.85
2022-09-05T09:34:47.356Z,0.65
2022-09-05T09:37:49.858Z,1.38
2022-09-05T09:40:30.067Z,0.60
2022-09-05T09:43:27.383Z,0.65
2022-09-05T09:46:18.298Z,0.38
2022-09-05T09:49:02.462Z,0.50
2022-09-05T09:51:34.838Z,0.75
2022-09-05T09:54:10.590Z,0.52
2022-09-05T09:57:11.216Z,0.30
2022-09-05T10:00:02.824Z,0.73
2022-09-05T10:10:38.186Z,0.35
2022-09-05T10:10:54.222Z,0.43
2022-09-05T10:12:03.420Z,0.40
2022-09-05T10:14:50.682Z,1.25
2022-09-05T10:17:51.540Z,0.35
2022-09-05T10:20:29.800Z,0.63
2022-09-05T10:23:11.705Z,0.40
2022-09-05T10:26:05.878Z,0.70
2022-09-05T10:28:45.832Z,0.52
2022-09-05T10:33:45.497Z,0.63
2022-09-05T10:35:17.696Z,0.20
2022-09-05T10:37:15.185Z,0.60
2022-09-05T10:39:47.152Z,0.40
2022-09-05T10:42:50.167Z,0.60
2022-09-05T10:45:53.430Z,0.38
2022-09-05T10:48:31.016Z,0.30
2022-09-05T10:51:04.530Z,0.20
2022-09-05T10:53:49.469Z,0.20
2022-09-05T10:56:19.497Z,0.63
2022-09-05T11:01:34.771Z,0.15
2022-09-05T11:02:26.038Z,0.20
2022-09-05T11:04:50.451Z,0.20
2022-09-05T11:07:38.794Z,0.40
2022-09-05T11:10:12.274Z,0.32
2022-09-05T11:13:01.383Z,0.52
2022-09-05T11:15:44.100Z,0.30
2022-09-05T11:18:56.041Z,0.60
2022-09-05T11:22:22.032Z,0.43
2022-09-05T11:24:58.763Z,0.32
2022-09-05T11:27:40.219Z,1.45
2022-09-05T11:30:28.925Z,0.98
2022-09-05T11:39:48.425Z,0.40
2022-09-05T11:39:52.871Z,0.40
2022-09-05T11:40:31.265Z,0.85
2022-09-05T11:42:48.817Z,0.50
2022-09-05T11:45:24.822Z,0.30
2022-09-05T11:48:20.019Z,0.80
2022-09-05T11:51:15.610Z,0.32
2022-09-05T11:54:16.422Z,0.70
2022-09-05T11:57:32.033Z,1.15
2022-09-05T12:00:33.687Z,1.10
2022-09-05T12:04:00.286Z,0.88
2022-09-05T12:06:47.782Z,0.40
2022-09-05T12:09:23.819Z,0.40
2022-09-05T12:11:56.943Z,0.30
2022-09-05T12:14:54.921Z,0.50
2022-09-05T12:17:37.981Z,0.82
2022-09-05T12:20:21.929Z,0.75
2022-09-05T12:23:04.197Z,0.28
2022-09-05T12:27:41.007Z,1.55
2022-09-05T12:29:27.199Z,0.38
2022-09-05T12:33:32.775Z,0.85
2022-09-05T12:36:09.947Z,0.32
2022-09-05T12:40:45.118Z,0.50
2022-09-05T12:41:45.236Z,0.20
2022-09-05T12:44:42.556Z,0.28
2022-09-05T12:47:18.666Z,0.65
2022-09-05T12:50:15.309Z,0.60
2022-09-05T12:52:47.128Z,0.25
2022-09-05T12:55:34.152Z,0.30
2022-09-05T13:02:01.475Z,0.38
2022-09-05T13:03:09.851Z,0.40
2022-09-05T13:04:20.208Z,0.60
2022-09-05T13:06:57.313Z,0.20
2022-09-05T13:10:58.818Z,0.32
2022-09-05T13:14:52.473Z,0.20
2022-09-05T13:15:27.337Z,1.15
2022-09-05T13:18:12.029Z,1.13
2022-09-05T13:20:51.293Z,0.80
2022-09-05T13:23:35.730Z,0.40
2022-09-05T13:26:08.032Z,0.52
2022-09-05T13:28:56.674Z,0.93
2022-09-05T13:37:54.326Z,0.38
2022-09-05T13:37:58.803Z,0.32
2022-09-05T13:38:16.291Z,0.30
2022-09-05T13:40:19.603Z,0.40
2022-09-05T13:43:05.246Z,0.20
2022-09-05T13:45:35.129Z,0.85
2022-09-05T13:48:27.625Z,0.57
2022-09-05T13:51:00.048Z,1.13
2022-09-05T13:53:36.859Z,0.57
2022-09-05T13:56:25.203Z,0.82
2022-09-05T13:58:59.984Z,0.43
2022-09-05T14:01:54.624Z,0.73
2022-09-05T14:05:13.558Z,0.30
2022-09-05T14:08:03.678Z,0.85
2022-09-05T14:11:02.217Z,0.70
2022-09-05T14:13:56.340Z,0.10
2022-09-05T14:16:27.021Z,0.50
2022-09-05T14:19:13.228Z,0.40
2022-09-05T14:21:42.149Z,0.30
2022-09-05T14:24:27.949Z,1.02
2022-09-05T14:27:03.058Z,0.20
2022-09-05T14:29:39.085Z,1.40
2022-09-05T14:37:38.624Z,0.52
2022-09-05T14:37:38.870Z,0.30
2022-09-05T14:38:15.755Z,0.28
2022-09-05T14:41:30.323Z,0.20
2022-09-05T14:44:33.549Z,0.35
2022-09-05T14:47:06.387Z,0.85
2022-09-05T14:49:53.728Z,0.43
2022-09-05T14:52:29.415Z,0.38
2022-09-05T15:02:53.581Z,0.50
2022-09-05T15:02:58.504Z,0.52
2022-09-05T15:06:33.015Z,0.98
2022-09-05T15:12:14.346Z,0.30
2022-09-05T15:12:28.591Z,0.63
2022-09-05T15:14:37.363Z,0.52
2022-09-05T15:17:05.618Z,1.65
2022-09-05T15:20:08.106Z,0.50
2022-09-05T15:22:38.103Z,0.35
2022-09-05T15:27:46.225Z,0.43
2022-09-05T15:30:35.652Z,0.90
2022-09-05T15:33:25.809Z,0.70
2022-09-05T15:35:53.423Z,1.52
2022-09-05T15:38:28.063Z,1.90
2022-09-05T15:41:02.396Z,2.55
2022-09-05T15:43:36.458Z,2.55
2022-09-05T15:46:07.255Z,3.10
2022-09-05T15:48:35.631Z,4.03
2022-09-05T15:51:17.312Z,4.03
2022-09-05T15:53:44.250Z,3.95
2022-09-05T15:56:10.883Z,4.22
2022-09-05T15:58:52.726Z,5.00
2022-09-05T16:01:58.501Z,5.50
2022-09-05T16:08:32.751Z,5.80
2022-09-05T16:10:33.562Z,5.97
2022-09-05T16:10:45.712Z,5.88
2022-09-05T16:12:56.076Z,5.78
2022-09-05T16:21:09.596Z,5.40
2022-09-05T16:23:16.852Z,6.00
2022-09-05T16:23:25.850Z,6.00
2022-09-05T16:24:24.903Z,5.60
2022-09-05T16:27:07.809Z,5.70
2022-09-05T16:29:46.344Z,5.85
2022-09-05T16:32:22.888Z,5.18
2022-09-05T16:35:00.500Z,4.13
2022-09-05T16:38:01.361Z,4.80
2022-09-05T16:40:38.777Z,4.43
2022-09-05T16:43:15.588Z,4.10
2022-09-05T16:46:07.837Z,4.20
2022-09-05T16:48:40.587Z,4.05
2022-09-05T16:51:35.014Z,4.07
2022-09-05T16:54:20.872Z,2.80
2022-09-05T16:56:55.327Z,1.10
2022-09-05T16:59:26.576Z,0.40
2022-09-05T17:02:07.494Z,0.40
2022-09-05T17:05:14.500Z,0.30
2022-09-05T17:08:18.775Z,0.40
2022-09-05T17:10:57.472Z,0.20
2022-09-05T17:13:52.690Z,0.30
2022-09-05T17:16:45.387Z,0.90
2022-09-05T17:19:22.100Z,0.15
2022-09-05T17:24:24.437Z,0.20
2022-09-05T17:29:31.266Z,0.30
2022-09-05T17:29:40.095Z,0.20
2022-09-05T17:31:49.000Z,0.30
2022-09-05T17:33:45.535Z,0.30
2022-09-05T17:36:15.898Z,0.30
2022-09-05T17:38:55.026Z,0.20
2022-09-05T17:41:55.842Z,0.52
2022-09-05T17:44:29.790Z,0.30
2022-09-05T17:47:15.164Z,0.47
2022-09-05T17:49:47.189Z,0.30
2022-09-05T17:52:16.415Z,0.40
2022-09-05T17:54:49.910Z,0.20
2022-09-05T17:57:29.190Z,0.10
2022-09-05T18:00:03.827Z,0.10
2022-09-05T18:02:56.660Z,0.30
2022-09-05T18:05:57.558Z,0.20
2022-09-05T18:08:44.870Z,0.40
2022-09-05T18:11:18.059Z,0.22
2022-09-05T18:14:01.104Z,0.73
2022-09-05T18:19:34.107Z,0.40
2022-09-05T18:22:08.642Z,0.28
2022-09-05T18:24:40.121Z,0.20
2022-09-05T18:28:04.488Z,0.40
2022-09-05T18:33:56.325Z,0.10
2022-09-05T18:35:54.328Z,0.38
2022-09-05T18:38:29.734Z,0.35
2022-09-05T18:41:13.739Z,0.10
2022-09-05T18:43:45.024Z,0.20
2022-09-05T18:46:32.833Z,0.35
2022-09-05T18:50:21.841Z,0.40
2022-09-05T18:52:04.706Z,0.32
2022-09-05T18:54:34.626Z,0.52
2022-09-05T18:57:26.939Z,0.10
2022-09-05T19:00:00.454Z,0.10
2022-09-05T19:02:59.092Z,0.17
2022-09-05T19:05:40.254Z,0.30
2022-09-05T19:08:26.750Z,0.20
2022-09-05T19:10:58.749Z,0.52
2022-09-05T19:13:37.530Z,0.20
2022-09-05T19:16:43.909Z,0.28
2022-09-05T19:19:10.678Z,0.10
2022-09-05T19:22:33.354Z,0.38
2022-09-05T19:24:49.027Z,0.10
2022-09-05T19:29:33.209Z,0.40
2022-09-05T19:36:53.486Z,0.28
2022-09-05T19:37:07.776Z,0.32
2022-09-05T19:37:22.229Z,0.22
2022-09-05T19:38:49.390Z,0.20
2022-09-05T19:47:34.630Z,0.20
2022-09-05T19:47:37.946Z,0.30
2022-09-05T19:47:44.061Z,0.55
2022-09-05T19:49:56.913Z,0.30
2022-09-05T19:52:23.718Z,0.40
2022-09-05T19:54:51.450Z,0.20
2022-09-05T19:57:20.250Z,0.10
2022-09-05T19:59:53.090Z,0.47
2022-09-05T20:02:25.314Z,0.20
2022-09-05T20:04:54.955Z,0.45
2022-09-05T20:07:26.588Z,0.52
2022-09-05T20:09:54.882Z,0.28
2022-09-05T20:12:38.178Z,0.22
2022-09-05T20:15:34.659Z,0.17
2022-09-05T20:18:42.931Z,0.10
2022-09-05T20:21:22.907Z,0.57
2022-09-05T20:23:51.626Z,0.63
2022-09-05T20:26:21.413Z,0.20
2022-09-05T20:28:54.010Z,0.32
2022-09-05T20:31:27.106Z,0.50
2022-09-05T20:35:09.180Z,0.20
2022-09-05T20:43:15.201Z,0.20
2022-09-05T20:43:18.456Z,0.28
2022-09-05T20:43:18.586Z,0.13
2022-09-05T20:45:45.444Z,0.30
2022-09-05T20:54:07.983Z,0.20
2022-09-05T20:54:19.417Z,0.10
2022-09-05T20:54:24.832Z,0.40
2022-09-05T20:56:48.255Z,0.68
2022-09-05T20:59:37.365Z,0.50
2022-09-05T21:02:06.751Z,0.30
2022-09-05T21:04:35.855Z,0.30
2022-09-05T21:07:19.486Z,0.40
2022-09-05T21:09:49.913Z,0.20
2022-09-05T21:15:30.659Z,0.10
2022-09-05T21:18:05.667Z,0.30
2022-09-05T21:20:32.629Z,0.20
2022-09-05T21:22:59.310Z,0.20
2022-09-05T21:25:44.118Z,0.35
2022-09-05T21:28:24.360Z,0.22
2022-09-05T21:31:08.841Z,0.20
2022-09-05T21:33:45.295Z,0.20
2022-09-05T21:36:15.197Z,0.20
2022-09-05T21:38:42.844Z,0.20
2022-09-05T21:41:10.695Z,0.40
2022-09-05T21:47:33.622Z,0.30
2022-09-05T21:47:40.488Z,0.10
2022-09-05T21:49:18.363Z,0.10
2022-09-05T21:51:48.221Z,0.10
2022-09-05T21:59:22.192Z,0.35
2022-09-05T21:59:26.995Z,0.38
2022-09-05T21:59:57.761Z,0.22
2022-09-05T22:02:32.544Z,0.22
2022-09-05T22:05:03.815Z,0.20
2022-09-05T22:07:34.491Z,0.10
2022-09-05T22:10:04.153Z,0.15
2022-09-05T22:12:33.557Z,0.30
2022-09-05T22:15:10.104Z,0.60
2022-09-05T22:17:49.218Z,0.43
2022-09-05T22:20:17.481Z,0.20
2022-09-05T22:22:45.246Z,0.30
2022-09-05T22:25:28.723Z,0.60
2022-09-05T22:28:06.242Z,0.45
2022-09-05T22:30:36.702Z,0.47
2022-09-05T22:35:34.344Z,0.30
2022-09-05T22:38:03.525Z,0.20
2022-09-05T22:40:32.412Z,0.20
2022-09-05T22:43:01.735Z,0.20
2022-09-05T22:45:29.786Z,0.30
2022-09-05T22:47:57.227Z,0.45
2022-09-05T22:50:24.578Z,0.10
2022-09-05T22:52:51.282Z,0.20
2022-09-05T22:55:18.392Z,0.30
2022-09-05T22:57:45.075Z,0.20
2022-09-05T23:00:12.087Z,0.30
2022-09-05T23:02:38.759Z,0.20
2022-09-05T23:05:06.437Z,0.20
2022-09-05T23:07:33.162Z,0.10
2022-09-05T23:09:59.912Z,0.20
2022-09-05T23:12:26.958Z,0.38
2022-09-05T23:14:53.805Z,0.20
2022-09-05T23:17:20.477Z,0.80
2022-09-05T23:19:47.249Z,0.30
2022-09-05T23:22:13.921Z,0.32
2022-09-05T23:24:40.635Z,0.22
2022-09-05T23:27:07.332Z,0.57
2022-09-05T23:29:34.133Z,0.30
2022-09-05T23:32:00.827Z,0.50
2022-09-05T23:34:27.560Z,0.40
2022-09-05T23:36:56.390Z,0.47
2022-09-05T23:39:23.323Z,0.52
2022-09-05T23:41:50.067Z,0.38
2022-09-05T23:44:16.803Z,0.60
2022-09-05T23:46:44.196Z,0.60
2022-09-05T23:49:11.005Z,0.40
2022-09-05T23:51:37.634Z,0.52
2022-09-05T23:54:04.405Z,0.38
2022-09-05T23:56:31.106Z,0.17
2022-09-05T23:58:57.802Z,2.08
